Terminal Aerodrome Forecast
Issued by NWS

Home | Current Version | Previous Version | Text Only | Print | Product List | Glossary On
Versions: 1 2 3 4 5 6 7 8 9 10 11 12 13 14 15 16
000
FTUS45 KFGZ 291720
TAFSEZ
TAF
KSEZ 291720Z 2918/3018 21008KT P6SM SCT100
      TEMPO 2921/3001 VRB15G25KT 5SM -TSRA BKN080CB
     FM300400 05010KT P6SM SCT080=

USA.gov is the U.S. government's official web portal to all federal, state and local government web resources and services.